Time;durP1;ratioP1;P1;durP2;ratioP2;P2;SDS_P1;SDS_P2;PMS_P1;PMS_P2;Temp;Humidity;BMP_temperature;BMP_pressure;BME280_temperature;BME280_humidity;BME280_pressure;Samples;Min_cycle;Max_cycle;Signal;HPM_P1;HPM_P2
2022/07/08 00:00:23;;;;;;;13.85;6.82;;;;;;;;;;5080932;28;20028;-72
2022/07/08 00:02:49;;;;;;;14.43;6.30;;;;;;;;;;5087770;28;20028;-72
2022/07/08 00:05:14;;;;;;;14.43;6.05;;;;;;;;;;5083852;28;20016;-72
2022/07/08 00:07:39;;;;;;;13.85;6.50;;;;;;;;;;5079250;28;20070;-72
2022/07/08 00:10:05;;;;;;;14.05;6.30;;;;;;;;;;5079563;28;20085;-73
2022/07/08 00:12:30;;;;;;;18.42;6.90;;;;;;;;;;5087275;28;20082;-72
2022/07/08 00:14:55;;;;;;;15.70;7.10;;;;;;;;;;5078762;28;20028;-72
2022/07/08 00:17:21;;;;;;;16.70;6.95;;;;;;;;;;5078131;28;20027;-72
2022/07/08 00:19:46;;;;;;;16.92;7.18;;;;;;;;;;5076277;28;20021;-72
2022/07/08 00:22:11;;;;;;;14.57;6.53;;;;;;;;;;5058127;28;20114;-72
2022/07/08 00:24:37;;;;;;;16.23;6.93;;;;;;;;;;5074007;28;20020;-72
2022/07/08 00:27:02;;;;;;;14.45;6.30;;;;;;;;;;5080009;28;20089;-72
2022/07/08 00:29:27;;;;;;;13.52;6.43;;;;;;;;;;5093644;28;20093;-72
2022/07/08 00:31:53;;;;;;;14.38;6.28;;;;;;;;;;5074910;28;20027;-72
2022/07/08 00:34:18;;;;;;;18.08;5.88;;;;;;;;;;5075428;28;20056;-72
2022/07/08 00:36:43;;;;;;;11.30;6.63;;;;;;;;;;5081859;28;20024;-72
2022/07/08 00:39:08;;;;;;;14.10;6.38;;;;;;;;;;5075994;28;20464;-72
2022/07/08 00:41:34;;;;;;;14.93;7.10;;;;;;;;;;5085124;28;20031;-72
2022/07/08 00:43:59;;;;;;;19.73;6.93;;;;;;;;;;5088566;28;20036;-72
2022/07/08 00:46:25;;;;;;;19.95;6.50;;;;;;;;;;5086629;28;20507;-72
2022/07/08 00:48:50;;;;;;;14.60;6.28;;;;;;;;;;5082129;28;20021;-71
2022/07/08 00:51:16;;;;;;;15.18;6.30;;;;;;;;;;5083582;28;20081;-72
2022/07/08 00:53:42;;;;;;;14.30;6.47;;;;;;;;;;5078282;28;20380;-72
2022/07/08 00:56:08;;;;;;;18.92;7.55;;;;;;;;;;5079957;28;20044;-72
2022/07/08 00:58:33;;;;;;;15.45;6.63;;;;;;;;;;5073994;28;20032;-72
2022/07/08 01:00:59;;;;;;;13.00;5.85;;;;;;;;;;5082936;28;20024;-72
2022/07/08 01:03:24;;;;;;;12.13;6.32;;;;;;;;;;5082599;28;20016;-72
2022/07/08 01:05:50;;;;;;;17.05;6.85;;;;;;;;;;5082926;28;20032;-72
2022/07/08 01:08:15;;;;;;;10.95;6.45;;;;;;;;;;5086491;28;20475;-72
2022/07/08 01:10:40;;;;;;;16.98;6.47;;;;;;;;;;5075121;28;20096;-72
2022/07/08 01:13:06;;;;;;;16.30;6.90;;;;;;;;;;5086529;28;20140;-72
2022/07/08 01:15:32;;;;;;;20.10;7.18;;;;;;;;;;5076792;28;20027;-72
2022/07/08 01:17:57;;;;;;;16.35;7.10;;;;;;;;;;5074586;28;20059;-71
2022/07/08 01:20:22;;;;;;;18.08;7.30;;;;;;;;;;5076855;28;20036;-72
2022/07/08 01:22:47;;;;;;;14.20;6.90;;;;;;;;;;5072787;28;20097;-72
2022/07/08 01:25:13;;;;;;;16.45;7.28;;;;;;;;;;5073988;28;20095;-72
2022/07/08 01:27:38;;;;;;;14.60;6.85;;;;;;;;;;5073067;28;20032;-72
2022/07/08 01:30:04;;;;;;;14.95;6.88;;;;;;;;;;5075426;28;20032;-72
2022/07/08 01:32:34;;;;;;;17.27;7.10;;;;;;;;;;5075393;28;20516;-72
2022/07/08 01:34:59;;;;;;;14.77;7.13;;;;;;;;;;5076320;28;20025;-72
2022/07/08 01:37:25;;;;;;;11.95;6.88;;;;;;;;;;5075960;28;20353;-72
2022/07/08 01:39:50;;;;;;;15.10;6.60;;;;;;;;;;5091694;28;20051;-72
2022/07/08 01:42:15;;;;;;;14.30;6.38;;;;;;;;;;5077135;28;20028;-71
2022/07/08 01:44:40;;;;;;;17.90;7.13;;;;;;;;;;5080068;28;20027;-72
2022/07/08 01:47:06;;;;;;;14.65;7.10;;;;;;;;;;5072603;28;20441;-72
2022/07/08 01:49:31;;;;;;;15.60;6.47;;;;;;;;;;5075412;28;20036;-72
2022/07/08 01:51:56;;;;;;;12.50;6.85;;;;;;;;;;5076606;28;20013;-72
2022/07/08 01:54:22;;;;;;;16.00;7.00;;;;;;;;;;5077814;28;20033;-72
2022/07/08 01:56:47;;;;;;;18.38;6.68;;;;;;;;;;5081144;28;20028;-72
2022/07/08 01:59:12;;;;;;;13.82;7.28;;;;;;;;;;5087463;28;20027;-71
2022/07/08 02:01:37;;;;;;;18.13;7.60;;;;;;;;;;5077659;28;20027;-71
2022/07/08 02:04:03;;;;;;;14.05;6.55;;;;;;;;;;5078807;28;20074;-72
2022/07/08 02:06:28;;;;;;;15.45;6.68;;;;;;;;;;5078294;28;20457;-72
2022/07/08 02:08:54;;;;;;;14.07;6.22;;;;;;;;;;5077101;28;20497;-72
2022/07/08 02:14:03;;;;;;;15.75;6.97;;;;;;;;;;5073636;28;20081;-72
2022/07/08 02:16:28;;;;;;;13.85;6.63;;;;;;;;;;5084097;28;20037;-72
2022/07/08 02:18:53;;;;;;;18.30;6.53;;;;;;;;;;5079771;28;20151;-72
2022/07/08 02:21:18;;;;;;;15.02;6.03;;;;;;;;;;5076397;28;20496;-72
2022/07/08 02:23:44;;;;;;;16.60;6.85;;;;;;;;;;5079503;28;20085;-72
2022/07/08 02:26:09;;;;;;;13.82;5.75;;;;;;;;;;5084554;28;20031;-72
2022/07/08 02:28:34;;;;;;;18.20;6.22;;;;;;;;;;5090792;28;20387;-72
2022/07/08 02:30:59;;;;;;;14.50;6.00;;;;;;;;;;5085805;28;20470;-72
2022/07/08 02:33:25;;;;;;;13.45;6.78;;;;;;;;;;5091128;28;20032;-71
2022/07/08 02:35:50;;;;;;;16.00;6.93;;;;;;;;;;5086077;28;20411;-72
2022/07/08 02:38:15;;;;;;;13.52;6.28;;;;;;;;;;5090510;28;20059;-71
2022/07/08 02:40:40;;;;;;;11.98;6.50;;;;;;;;;;5087790;28;20040;-72
2022/07/08 02:43:09;;;;;;;12.82;6.32;;;;;;;;;;5090183;28;20397;-72
2022/07/08 02:45:35;;;;;;;16.27;5.95;;;;;;;;;;5083789;28;20029;-72
2022/07/08 02:48:00;;;;;;;12.95;6.00;;;;;;;;;;5083455;28;20411;-72
2022/07/08 02:50:26;;;;;;;12.50;6.32;;;;;;;;;;5082152;28;20029;-72
2022/07/08 02:52:52;;;;;;;18.70;6.60;;;;;;;;;;5091646;28;20368;-72
2022/07/08 02:55:17;;;;;;;16.92;6.68;;;;;;;;;;5086554;28;20031;-72
2022/07/08 02:57:42;;;;;;;15.93;6.15;;;;;;;;;;5075256;28;20478;-72
2022/07/08 03:00:08;;;;;;;11.95;6.47;;;;;;;;;;5083397;28;20074;-72
2022/07/08 03:02:33;;;;;;;12.65;6.40;;;;;;;;;;5081352;28;20020;-72
2022/07/08 03:04:59;;;;;;;14.70;6.47;;;;;;;;;;5082507;28;20383;-72
2022/07/08 03:07:24;;;;;;;10.70;5.47;;;;;;;;;;5081587;28;20036;-72
2022/07/08 03:09:49;;;;;;;12.38;6.22;;;;;;;;;;5092177;28;20031;-72
2022/07/08 03:12:14;;;;;;;14.68;6.53;;;;;;;;;;5083386;28;20036;-72
2022/07/08 03:14:40;;;;;;;13.13;6.00;;;;;;;;;;5089946;28;20032;-72
2022/07/08 03:17:05;;;;;;;16.45;5.65;;;;;;;;;;5075648;28;20456;-72
2022/07/08 03:19:30;;;;;;;9.95;5.38;;;;;;;;;;5086842;28;20546;-72
2022/07/08 03:21:55;;;;;;;9.30;5.28;;;;;;;;;;5068129;28;20024;-71
2022/07/08 03:24:21;;;;;;;14.27;6.30;;;;;;;;;;5088048;28;20059;-71
2022/07/08 03:26:46;;;;;;;12.23;5.63;;;;;;;;;;5078827;28;20362;-72
2022/07/08 03:29:11;;;;;;;10.90;5.25;;;;;;;;;;5076776;28;20029;-72
2022/07/08 03:31:36;;;;;;;9.88;5.20;;;;;;;;;;5081781;28;20452;-72
2022/07/08 03:34:02;;;;;;;14.25;5.72;;;;;;;;;;5065318;28;20085;-72
2022/07/08 03:36:28;;;;;;;10.65;5.50;;;;;;;;;;5090168;28;20532;-72
2022/07/08 03:38:54;;;;;;;10.75;5.40;;;;;;;;;;5086323;28;20491;-71
2022/07/08 03:41:23;;;;;;;15.35;5.43;;;;;;;;;;5082713;28;20016;-72
2022/07/08 03:43:49;;;;;;;10.85;5.18;;;;;;;;;;5086487;28;20039;-72
2022/07/08 03:46:14;;;;;;;14.82;4.85;;;;;;;;;;5077326;28;20021;-72
2022/07/08 03:48:40;;;;;;;10.55;5.68;;;;;;;;;;5089779;28;20023;-72
2022/07/08 03:51:05;;;;;;;9.40;4.75;;;;;;;;;;5084325;28;20031;-71
2022/07/08 03:53:31;;;;;;;11.60;5.38;;;;;;;;;;5079488;28;20475;-72
2022/07/08 03:55:56;;;;;;;11.45;5.32;;;;;;;;;;5075546;28;20025;-72
2022/07/08 03:58:21;;;;;;;11.52;5.15;;;;;;;;;;5079137;28;20031;-72
2022/07/08 04:00:47;;;;;;;11.25;5.35;;;;;;;;;;5085915;28;20044;-71
2022/07/08 04:03:12;;;;;;;11.98;4.82;;;;;;;;;;5077930;28;20024;-71
2022/07/08 04:05:38;;;;;;;8.98;5.03;;;;;;;;;;5075156;28;20033;-72
2022/07/08 04:08:03;;;;;;;12.55;4.80;;;;;;;;;;5087090;28;20383;-71
2022/07/08 04:10:28;;;;;;;9.32;5.22;;;;;;;;;;5072734;28;20021;-72
2022/07/08 04:12:54;;;;;;;11.52;5.45;;;;;;;;;;5079129;28;20036;-72
2022/07/08 04:15:19;;;;;;;7.93;4.40;;;;;;;;;;5086318;28;20456;-72
2022/07/08 04:17:44;;;;;;;13.68;4.78;;;;;;;;;;5082546;28;20379;-72
2022/07/08 04:20:09;;;;;;;10.95;4.38;;;;;;;;;;5079132;28;20471;-72
2022/07/08 04:22:35;;;;;;;11.68;4.82;;;;;;;;;;5073939;28;20543;-71
2022/07/08 04:25:00;;;;;;;11.50;4.72;;;;;;;;;;5080878;28;20016;-72
2022/07/08 04:27:25;;;;;;;11.38;5.20;;;;;;;;;;5074747;28;20106;-72
2022/07/08 04:29:50;;;;;;;10.55;4.55;;;;;;;;;;5076039;28;20087;-72
2022/07/08 04:32:16;;;;;;;9.80;4.43;;;;;;;;;;5080869;28;20373;-72
2022/07/08 04:34:41;;;;;;;9.32;4.65;;;;;;;;;;5085205;28;20028;-72
2022/07/08 04:37:06;;;;;;;10.35;4.45;;;;;;;;;;5069874;28;20050;-72
2022/07/08 04:39:31;;;;;;;13.23;5.00;;;;;;;;;;5064143;28;20049;-72
2022/07/08 04:41:57;;;;;;;12.75;4.90;;;;;;;;;;5084748;28;20525;-72
2022/07/08 04:44:22;;;;;;;9.68;4.38;;;;;;;;;;5092681;28;20103;-73
2022/07/08 04:46:47;;;;;;;11.13;4.63;;;;;;;;;;5073211;28;20025;-72
2022/07/08 04:49:14;;;;;;;9.00;4.18;;;;;;;;;;5075716;28;20412;-72
2022/07/08 04:51:39;;;;;;;9.40;4.22;;;;;;;;;;5077991;28;20184;-72
2022/07/08 04:54:04;;;;;;;6.47;2.92;;;;;;;;;;5077421;28;20143;-72
2022/07/08 04:56:30;;;;;;;7.15;2.60;;;;;;;;;;5073800;28;20107;-71
2022/07/08 04:58:55;;;;;;;41.47;4.40;;;;;;;;;;5075743;28;20019;-72
2022/07/08 05:01:20;;;;;;;334.92;22.63;;;;;;;;;;5082431;28;20027;-72
2022/07/08 05:03:46;;;;;;;97.63;7.38;;;;;;;;;;5083335;28;20532;-71
2022/07/08 05:06:11;;;;;;;59.50;3.92;;;;;;;;;;5078044;28;20020;-72
2022/07/08 05:08:36;;;;;;;13.57;1.85;;;;;;;;;;5077315;28;20031;-71
2022/07/08 05:11:02;;;;;;;20.73;2.42;;;;;;;;;;5075008;28;20031;-72
2022/07/08 05:13:27;;;;;;;21.48;2.15;;;;;;;;;;5079700;28;20031;-71
2022/07/08 05:15:52;;;;;;;8.68;1.80;;;;;;;;;;5076821;28;20044;-72
2022/07/08 05:18:17;;;;;;;14.32;1.83;;;;;;;;;;5075358;28;20387;-72
2022/07/08 05:20:43;;;;;;;4.82;1.40;;;;;;;;;;5075146;28;20044;-72
2022/07/08 05:23:08;;;;;;;4.47;1.40;;;;;;;;;;5082592;28;20028;-72
2022/07/08 05:25:33;;;;;;;7.85;1.38;;;;;;;;;;5077578;28;20035;-72
2022/07/08 05:27:59;;;;;;;6.65;1.58;;;;;;;;;;5080203;28;20032;-72
2022/07/08 05:30:24;;;;;;;3.08;1.30;;;;;;;;;;5081693;28;20024;-73
2022/07/08 05:32:49;;;;;;;3.45;1.30;;;;;;;;;;5089616;28;20036;-73
2022/07/08 05:35:15;;;;;;;2.50;1.20;;;;;;;;;;5083763;28;20028;-72
2022/07/08 05:37:40;;;;;;;3.05;1.40;;;;;;;;;;5070155;28;20019;-73
2022/07/08 05:40:07;;;;;;;2.15;1.40;;;;;;;;;;5084955;28;20368;-73
2022/07/08 05:42:32;;;;;;;2.80;1.40;;;;;;;;;;5090563;28;20035;-73
2022/07/08 05:44:57;;;;;;;4.28;1.30;;;;;;;;;;5082088;28;20020;-73
2022/07/08 05:47:23;;;;;;;3.80;1.27;;;;;;;;;;5076301;28;20028;-74
2022/07/08 05:49:48;;;;;;;4.32;1.20;;;;;;;;;;5076076;28;20099;-73
2022/07/08 05:52:13;;;;;;;2.75;1.30;;;;;;;;;;5074860;28;20033;-73
2022/07/08 05:54:39;;;;;;;1.95;1.17;;;;;;;;;;5075581;28;20059;-73
2022/07/08 05:57:04;;;;;;;2.83;1.05;;;;;;;;;;5081069;28;20023;-73
2022/07/08 05:59:29;;;;;;;3.25;1.30;;;;;;;;;;5082665;28;20033;-73
2022/07/08 06:01:55;;;;;;;3.08;1.30;;;;;;;;;;5088401;28;20032;-74
2022/07/08 06:04:21;;;;;;;2.30;1.40;;;;;;;;;;5090227;28;20416;-73
2022/07/08 06:06:46;;;;;;;3.55;1.08;;;;;;;;;;5090033;28;20099;-73
2022/07/08 06:09:11;;;;;;;3.85;1.20;;;;;;;;;;5079124;28;20063;-74
2022/07/08 06:11:37;;;;;;;2.13;1.10;;;;;;;;;;5079981;28;20096;-74
2022/07/08 06:14:02;;;;;;;3.40;1.30;;;;;;;;;;5077409;28;20039;-74
2022/07/08 06:16:27;;;;;;;1.77;1.13;;;;;;;;;;5082879;28;20029;-74
2022/07/08 06:18:53;;;;;;;2.72;1.20;;;;;;;;;;5086193;28;20495;-74
2022/07/08 06:21:18;;;;;;;2.35;1.23;;;;;;;;;;5088651;28;20013;-74
2022/07/08 06:23:43;;;;;;;2.20;1.15;;;;;;;;;;5075653;28;20036;-74
2022/07/08 06:26:10;;;;;;;5.40;1.30;;;;;;;;;;5083891;28;20039;-75
2022/07/08 06:28:35;;;;;;;2.97;1.20;;;;;;;;;;5083123;28;20107;-72
2022/07/08 06:31:00;;;;;;;3.17;1.20;;;;;;;;;;5079759;28;20068;-72
2022/07/08 06:33:26;;;;;;;2.45;1.05;;;;;;;;;;5074808;28;20111;-72
2022/07/08 06:35:51;;;;;;;6.00;1.10;;;;;;;;;;5077533;28;20025;-72
2022/07/08 06:38:16;;;;;;;2.78;1.20;;;;;;;;;;5080111;28;20055;-72
2022/07/08 06:40:42;;;;;;;2.33;1.00;;;;;;;;;;5081089;28;20599;-72
2022/07/08 06:43:07;;;;;;;1.90;1.02;;;;;;;;;;5080822;28;20024;-72
2022/07/08 06:45:32;;;;;;;2.47;1.13;;;;;;;;;;5081848;28;20029;-72
2022/07/08 06:47:58;;;;;;;3.10;1.33;;;;;;;;;;5071038;28;20099;-76
2022/07/08 06:50:24;;;;;;;3.85;1.40;;;;;;;;;;5076822;28;20017;-75
2022/07/08 06:52:49;;;;;;;2.50;0.90;;;;;;;;;;5076625;28;20038;-73
2022/07/08 06:55:14;;;;;;;3.58;1.27;;;;;;;;;;5078976;28;20021;-75
2022/07/08 06:57:40;;;;;;;1.98;1.00;;;;;;;;;;5084252;28;20070;-75
2022/07/08 07:00:06;;;;;;;4.20;1.25;;;;;;;;;;5077837;28;20037;-75
2022/07/08 07:02:31;;;;;;;3.08;1.20;;;;;;;;;;5070933;28;20032;-75
2022/07/08 07:04:56;;;;;;;1.70;0.90;;;;;;;;;;5079043;28;20103;-75
2022/07/08 07:07:22;;;;;;;2.80;0.95;;;;;;;;;;5073003;28;20472;-73
2022/07/08 07:09:47;;;;;;;3.35;1.00;;;;;;;;;;5072404;28;20036;-73
2022/07/08 07:12:12;;;;;;;2.65;1.08;;;;;;;;;;5072946;28;20029;-75
2022/07/08 07:14:37;;;;;;;1.80;0.93;;;;;;;;;;5084332;28;20488;-76
2022/07/08 07:17:03;;;;;;;2.25;1.00;;;;;;;;;;5085226;28;20023;-74
2022/07/08 07:19:28;;;;;;;1.80;0.93;;;;;;;;;;5086489;28;20486;-74
2022/07/08 07:21:54;;;;;;;3.35;1.20;;;;;;;;;;5086648;28;20044;-75
2022/07/08 07:24:19;;;;;;;1.70;1.00;;;;;;;;;;5074901;28;20432;-75
2022/07/08 07:26:44;;;;;;;1.90;0.90;;;;;;;;;;5075011;28;20103;-74
2022/07/08 07:29:09;;;;;;;3.40;0.90;;;;;;;;;;5079967;28;20115;-75
2022/07/08 07:31:35;;;;;;;3.73;1.00;;;;;;;;;;5079934;28;20021;-75
2022/07/08 07:34:01;;;;;;;3.72;1.00;;;;;;;;;;5075308;28;20329;-75
2022/07/08 07:36:26;;;;;;;2.22;1.00;;;;;;;;;;5079785;28;20028;-75
2022/07/08 07:38:52;;;;;;;1.98;1.00;;;;;;;;;;5076187;28;20123;-75
2022/07/08 07:41:17;;;;;;;2.10;1.02;;;;;;;;;;5076190;28;20475;-75
2022/07/08 07:43:42;;;;;;;1.75;0.90;;;;;;;;;;5074458;28;20060;-75
2022/07/08 07:46:08;;;;;;;2.50;1.00;;;;;;;;;;5086985;28;20463;-74
2022/07/08 07:48:33;;;;;;;3.40;1.08;;;;;;;;;;5066062;28;20448;-75
2022/07/08 07:50:58;;;;;;;2.70;1.00;;;;;;;;;;5077641;28;20101;-75
2022/07/08 07:53:24;;;;;;;1.80;1.00;;;;;;;;;;5080908;28;20040;-75
2022/07/08 07:55:50;;;;;;;4.90;1.20;;;;;;;;;;5087376;28;20263;-75
2022/07/08 07:58:15;;;;;;;1.70;0.90;;;;;;;;;;5077578;28;20028;-75
2022/07/08 08:00:40;;;;;;;2.63;0.90;;;;;;;;;;5074109;28;20013;-75
2022/07/08 08:03:05;;;;;;;2.17;1.08;;;;;;;;;;5088713;28;20249;-75
2022/07/08 08:05:31;;;;;;;3.40;1.20;;;;;;;;;;5089116;28;20039;-75
2022/07/08 08:07:56;;;;;;;4.13;1.38;;;;;;;;;;5075490;28;20735;-75
2022/07/08 08:10:21;;;;;;;4.72;1.10;;;;;;;;;;5079450;28;20460;-75
2022/07/08 08:12:46;;;;;;;2.60;1.42;;;;;;;;;;5079381;28;20118;-74
2022/07/08 08:15:12;;;;;;;4.63;1.20;;;;;;;;;;5076240;28;20021;-75
2022/07/08 08:17:41;;;;;;;3.42;1.20;;;;;;;;;;5079775;28;20260;-75
2022/07/08 08:20:07;;;;;;;3.30;1.15;;;;;;;;;;5078947;28;20392;-74
2022/07/08 08:22:32;;;;;;;1.80;1.05;;;;;;;;;;5083463;28;20039;-74
2022/07/08 08:24:57;;;;;;;2.00;0.90;;;;;;;;;;5079816;28;20016;-76
2022/07/08 08:27:22;;;;;;;3.35;1.20;;;;;;;;;;5088192;28;20458;-72
2022/07/08 08:29:48;;;;;;;2.90;1.20;;;;;;;;;;5075088;28;20020;-73
2022/07/08 08:32:13;;;;;;;3.63;1.20;;;;;;;;;;5089064;28;20296;-72
2022/07/08 08:34:38;;;;;;;4.20;1.17;;;;;;;;;;5083629;28;20273;-73
2022/07/08 08:37:03;;;;;;;2.47;1.10;;;;;;;;;;5078220;28;20573;-73
2022/07/08 08:39:29;;;;;;;2.80;1.20;;;;;;;;;;5077154;28;20276;-74
2022/07/08 08:41:54;;;;;;;3.53;1.35;;;;;;;;;;5074617;28;20029;-74
2022/07/08 08:44:19;;;;;;;4.45;1.13;;;;;;;;;;5073885;28;20056;-74
2022/07/08 08:46:45;;;;;;;4.38;1.30;;;;;;;;;;5077396;28;20024;-74
2022/07/08 08:49:11;;;;;;;2.63;1.10;;;;;;;;;;5075560;28;20029;-75
2022/07/08 08:51:37;;;;;;;3.30;1.50;;;;;;;;;;5077795;28;20085;-75
2022/07/08 08:54:03;;;;;;;5.15;1.23;;;;;;;;;;5086607;28;20031;-74
2022/07/08 08:56:28;;;;;;;2.78;1.25;;;;;;;;;;5059151;28;20480;-75
2022/07/08 08:58:54;;;;;;;3.95;1.15;;;;;;;;;;5076839;28;20016;-75
2022/07/08 09:01:20;;;;;;;6.35;1.20;;;;;;;;;;5082083;28;20035;-74
2022/07/08 09:03:45;;;;;;;3.42;1.30;;;;;;;;;;5080369;28;20035;-75
2022/07/08 09:06:11;;;;;;;1.83;1.00;;;;;;;;;;5075617;28;20018;-74
2022/07/08 09:08:36;;;;;;;6.30;1.10;;;;;;;;;;5072681;28;20017;-74
2022/07/08 09:11:02;;;;;;;2.90;1.00;;;;;;;;;;5059472;28;20036;-74
2022/07/08 09:13:27;;;;;;;3.38;0.93;;;;;;;;;;5068745;28;20047;-74
2022/07/08 09:15:59;;;;;;;1.80;0.88;;;;;;;;;;5078587;28;20100;-74
2022/07/08 09:18:35;;;;;;;3.75;1.08;;;;;;;;;;5065286;28;20387;-73
2022/07/08 09:21:01;;;;;;;1.70;1.02;;;;;;;;;;5067051;28;20029;-73
2022/07/08 09:23:34;;;;;;;4.13;1.10;;;;;;;;;;5062207;28;20101;-73
2022/07/08 09:26:04;;;;;;;3.10;1.20;;;;;;;;;;5065750;28;20099;-73
2022/07/08 09:28:29;;;;;;;2.42;1.10;;;;;;;;;;5081498;28;20039;-73
2022/07/08 09:30:55;;;;;;;1.73;1.00;;;;;;;;;;5064625;28;20024;-74
2022/07/08 09:33:20;;;;;;;3.40;1.20;;;;;;;;;;5073164;28;20037;-75
2022/07/08 09:35:50;;;;;;;1.88;1.08;;;;;;;;;;5080715;28;20448;-75
2022/07/08 09:38:17;;;;;;;2.53;1.20;;;;;;;;;;5070843;28;20076;-75
2022/07/08 09:40:52;;;;;;;3.20;1.00;;;;;;;;;;5069501;28;20019;-74
2022/07/08 09:43:18;;;;;;;3.70;1.25;;;;;;;;;;5066145;28;20032;-74
2022/07/08 09:45:43;;;;;;;2.03;0.97;;;;;;;;;;5082674;28;20025;-75
2022/07/08 09:48:09;;;;;;;6.43;1.10;;;;;;;;;;5085074;28;20280;-76
2022/07/08 09:50:41;;;;;;;2.78;1.15;;;;;;;;;;5086751;28;20115;-75
2022/07/08 09:53:23;;;;;;;5.40;1.10;;;;;;;;;;5085522;28;20036;-75
2022/07/08 09:55:52;;;;;;;2.60;0.90;;;;;;;;;;5082463;28;20056;-76
2022/07/08 09:58:20;;;;;;;2.15;1.10;;;;;;;;;;5074934;28;20474;-74
2022/07/08 10:00:46;;;;;;;2.30;1.10;;;;;;;;;;5075594;28;20082;-73
2022/07/08 10:03:11;;;;;;;1.58;0.95;;;;;;;;;;5073480;28;20029;-73
2022/07/08 10:05:37;;;;;;;3.15;1.23;;;;;;;;;;5082329;28;20024;-74
2022/07/08 10:08:03;;;;;;;3.30;0.90;;;;;;;;;;5080129;28;20509;-73
2022/07/08 10:10:28;;;;;;;3.03;1.10;;;;;;;;;;5073368;28;20051;-73
2022/07/08 10:12:57;;;;;;;2.40;0.90;;;;;;;;;;5071999;28;20017;-73
2022/07/08 10:15:23;;;;;;;2.30;0.90;;;;;;;;;;5077269;28;20059;-73
2022/07/08 10:17:49;;;;;;;2.05;1.00;;;;;;;;;;5079754;28;20427;-74
2022/07/08 10:20:15;;;;;;;3.60;1.00;;;;;;;;;;5082039;28;20024;-73
2022/07/08 10:22:40;;;;;;;4.40;1.10;;;;;;;;;;5069074;28;20392;-74
2022/07/08 10:25:06;;;;;;;2.35;0.88;;;;;;;;;;5090365;28;20028;-74
2022/07/08 10:27:31;;;;;;;1.98;0.95;;;;;;;;;;5079973;28;20059;-73
2022/07/08 10:30:16;;;;;;;2.92;1.10;;;;;;;;;;5083794;28;20035;-73
2022/07/08 10:32:44;;;;;;;2.08;0.93;;;;;;;;;;5089276;28;20115;-73
2022/07/08 10:35:11;;;;;;;1.75;0.85;;;;;;;;;;5089715;28;20947;-73
2022/07/08 10:37:44;;;;;;;3.00;0.90;;;;;;;;;;5088844;28;20051;-73
2022/07/08 10:40:11;;;;;;;1.67;0.90;;;;;;;;;;5081294;28;20056;-73
2022/07/08 10:42:36;;;;;;;2.35;0.90;;;;;;;;;;5082011;28;20035;-73
2022/07/08 10:45:02;;;;;;;1.67;0.70;;;;;;;;;;5079691;28;20009;-73
2022/07/08 10:47:32;;;;;;;1.83;0.93;;;;;;;;;;5070854;28;20058;-73
2022/07/08 10:50:06;;;;;;;1.35;0.80;;;;;;;;;;5063922;28;20036;-73
2022/07/08 10:52:33;;;;;;;2.17;1.08;;;;;;;;;;5081171;28;20479;-75
2022/07/08 10:55:14;;;;;;;1.40;0.73;;;;;;;;;;5087536;28;20115;-75
2022/07/08 10:57:52;;;;;;;2.70;0.80;;;;;;;;;;5077281;28;20491;-74
2022/07/08 11:00:17;;;;;;;2.50;0.80;;;;;;;;;;5076398;28;20032;-74
2022/07/08 11:02:43;;;;;;;2.05;0.70;;;;;;;;;;5083010;28;20032;-74
2022/07/08 11:05:27;;;;;;;1.90;0.90;;;;;;;;;;5078092;28;20050;-75
2022/07/08 11:08:12;;;;;;;1.65;0.80;;;;;;;;;;5084662;28;20096;-74
2022/07/08 11:10:38;;;;;;;1.45;0.70;;;;;;;;;;5072688;28;20071;-75
2022/07/08 11:13:03;;;;;;;2.28;0.98;;;;;;;;;;5091631;28;20079;-74
2022/07/08 11:15:29;;;;;;;1.38;0.70;;;;;;;;;;5073179;28;20044;-75
2022/07/08 11:17:54;;;;;;;1.55;0.80;;;;;;;;;;5079576;28;20016;-74
2022/07/08 11:20:23;;;;;;;1.77;0.77;;;;;;;;;;5086694;28;20027;-74
2022/07/08 11:22:48;;;;;;;1.95;0.80;;;;;;;;;;5087451;28;20479;-74
2022/07/08 11:25:14;;;;;;;2.42;0.90;;;;;;;;;;5087294;28;20062;-74
2022/07/08 11:27:40;;;;;;;4.43;0.82;;;;;;;;;;5092021;28;20086;-75
2022/07/08 11:30:07;;;;;;;1.17;0.75;;;;;;;;;;5077620;28;20036;-73
2022/07/08 11:32:32;;;;;;;1.73;0.70;;;;;;;;;;5077313;28;20027;-74
2022/07/08 11:34:58;;;;;;;1.73;0.80;;;;;;;;;;5080304;28;20387;-73
2022/07/08 11:37:23;;;;;;;1.33;0.75;;;;;;;;;;5068894;28;20032;-74
2022/07/08 11:39:49;;;;;;;1.90;0.90;;;;;;;;;;5085013;28;20074;-74
2022/07/08 11:42:15;;;;;;;1.17;0.68;;;;;;;;;;5079026;28;20028;-75
2022/07/08 11:44:41;;;;;;;1.40;0.80;;;;;;;;;;5081360;28;20073;-73
2022/07/08 11:47:06;;;;;;;1.60;0.70;;;;;;;;;;5076655;28;20099;-74
2022/07/08 11:49:32;;;;;;;1.08;0.70;;;;;;;;;;5073941;28;20072;-74
2022/07/08 11:51:58;;;;;;;1.67;0.75;;;;;;;;;;5078290;28;20059;-74
2022/07/08 11:54:24;;;;;;;2.15;0.80;;;;;;;;;;5084094;28;20070;-74
2022/07/08 11:56:53;;;;;;;2.50;0.75;;;;;;;;;;5083557;28;20032;-74
2022/07/08 11:59:21;;;;;;;2.80;0.75;;;;;;;;;;5070497;28;20093;-74
2022/07/08 12:01:47;;;;;;;2.10;0.90;;;;;;;;;;5077078;28;20029;-74
2022/07/08 12:04:13;;;;;;;1.23;0.70;;;;;;;;;;5071654;28;20036;-75
2022/07/08 12:06:44;;;;;;;2.03;0.70;;;;;;;;;;5075040;28;20041;-74
2022/07/08 12:09:10;;;;;;;2.35;0.90;;;;;;;;;;5076541;28;20039;-73
2022/07/08 12:11:45;;;;;;;1.90;0.70;;;;;;;;;;5072650;28;20032;-74
2022/07/08 12:14:11;;;;;;;1.30;0.70;;;;;;;;;;5059368;28;20054;-73
2022/07/08 12:16:45;;;;;;;1.40;0.73;;;;;;;;;;5073816;28;20020;-73
2022/07/08 12:19:25;;;;;;;2.28;0.80;;;;;;;;;;5072884;28;20071;-73
2022/07/08 12:21:51;;;;;;;2.05;0.70;;;;;;;;;;5071604;28;20028;-74
2022/07/08 12:24:22;;;;;;;1.50;0.80;;;;;;;;;;5072641;28;20036;-74
2022/07/08 12:26:53;;;;;;;1.90;0.80;;;;;;;;;;5081810;28;20020;-73
2022/07/08 12:29:18;;;;;;;2.83;0.90;;;;;;;;;;5062618;28;20025;-74
2022/07/08 12:31:44;;;;;;;1.38;0.70;;;;;;;;;;5077257;28;20039;-73
2022/07/08 12:34:14;;;;;;;1.50;0.80;;;;;;;;;;5072367;28;20464;-73
2022/07/08 12:36:39;;;;;;;1.77;0.80;;;;;;;;;;5077929;28;20028;-73
2022/07/08 12:39:15;;;;;;;2.05;0.80;;;;;;;;;;5050784;28;20060;-73
2022/07/08 12:41:41;;;;;;;2.38;1.00;;;;;;;;;;5053859;28;20029;-74
2022/07/08 12:44:25;;;;;;;1.92;1.15;;;;;;;;;;5062266;28;20054;-74
2022/07/08 12:46:50;;;;;;;4.03;1.17;;;;;;;;;;5046398;28;20037;-75
2022/07/08 12:49:23;;;;;;;2.63;1.23;;;;;;;;;;5063329;28;20032;-73
2022/07/08 12:51:49;;;;;;;3.78;1.40;;;;;;;;;;5056181;28;20017;-73
2022/07/08 12:54:14;;;;;;;4.43;1.50;;;;;;;;;;5057721;28;20047;-73
2022/07/08 12:56:39;;;;;;;5.47;1.80;;;;;;;;;;5063324;28;20244;-74
2022/07/08 12:59:04;;;;;;;4.82;1.50;;;;;;;;;;5064097;28;20028;-74
2022/07/08 13:01:29;;;;;;;2.55;1.40;;;;;;;;;;5050447;28;20434;-74
2022/07/08 13:03:55;;;;;;;2.50;1.17;;;;;;;;;;5058916;28;20029;-74
2022/07/08 13:06:22;;;;;;;7.40;1.58;;;;;;;;;;5046300;28;20036;-75
2022/07/08 13:08:47;;;;;;;2.45;1.02;;;;;;;;;;5051660;28;20090;-74
2022/07/08 13:11:12;;;;;;;3.97;1.30;;;;;;;;;;5051612;28;20132;-74
2022/07/08 13:13:38;;;;;;;4.93;1.40;;;;;;;;;;5055690;28;20147;-75
2022/07/08 13:16:03;;;;;;;3.55;1.40;;;;;;;;;;5060468;28;20136;-74
2022/07/08 13:18:28;;;;;;;2.40;1.30;;;;;;;;;;5048837;28;20468;-74
2022/07/08 13:20:54;;;;;;;2.33;1.30;;;;;;;;;;5057083;28;20042;-73
2022/07/08 13:23:19;;;;;;;3.85;1.20;;;;;;;;;;5051947;28;20032;-74
2022/07/08 13:25:46;;;;;;;3.95;1.08;;;;;;;;;;5051742;28;20371;-73
2022/07/08 13:28:11;;;;;;;6.10;1.35;;;;;;;;;;5049985;28;20031;-75
2022/07/08 13:30:36;;;;;;;7.63;1.30;;;;;;;;;;5051748;28;20021;-74
2022/07/08 13:33:02;;;;;;;5.93;1.30;;;;;;;;;;5044892;28;20273;-73
2022/07/08 13:35:28;;;;;;;4.30;1.30;;;;;;;;;;5061536;28;20025;-74
2022/07/08 13:37:53;;;;;;;7.30;1.27;;;;;;;;;;5060723;28;20021;-74
2022/07/08 13:40:19;;;;;;;4.05;1.30;;;;;;;;;;5085260;28;20414;-73
2022/07/08 13:42:44;;;;;;;5.07;1.20;;;;;;;;;;5083020;28;20161;-73
2022/07/08 13:45:09;;;;;;;3.60;1.23;;;;;;;;;;5085931;28;20038;-74
2022/07/08 13:47:35;;;;;;;3.85;1.20;;;;;;;;;;5080919;28;20465;-73
2022/07/08 13:50:00;;;;;;;2.60;1.00;;;;;;;;;;5082110;28;20052;-74
2022/07/08 13:52:26;;;;;;;2.92;1.10;;;;;;;;;;5079847;28;20040;-73
2022/07/08 13:54:51;;;;;;;4.00;1.30;;;;;;;;;;5088068;28;20040;-74
2022/07/08 13:57:16;;;;;;;2.92;1.20;;;;;;;;;;5078247;28;20452;-74
2022/07/08 13:59:42;;;;;;;6.97;1.58;;;;;;;;;;5071322;28;20032;-73
2022/07/08 14:02:07;;;;;;;9.45;1.60;;;;;;;;;;5075899;28;20039;-73
2022/07/08 14:04:33;;;;;;;3.53;1.40;;;;;;;;;;5076240;28;20039;-73
2022/07/08 14:06:58;;;;;;;2.92;1.25;;;;;;;;;;5080939;28;20107;-73
2022/07/08 14:09:23;;;;;;;2.47;1.15;;;;;;;;;;5085921;28;20107;-73
2022/07/08 14:11:48;;;;;;;1.98;1.00;;;;;;;;;;5079195;28;20127;-73
2022/07/08 14:14:14;;;;;;;4.05;1.20;;;;;;;;;;5078917;28;20048;-73
2022/07/08 14:16:39;;;;;;;4.78;1.45;;;;;;;;;;5078265;28;20036;-74
2022/07/08 14:19:04;;;;;;;5.82;1.42;;;;;;;;;;5083096;28;20063;-74
2022/07/08 14:21:29;;;;;;;4.30;1.95;;;;;;;;;;5086079;28;20028;-74
2022/07/08 14:23:55;;;;;;;5.40;1.42;;;;;;;;;;5083005;28;21070;-73
2022/07/08 14:26:20;;;;;;;2.42;1.40;;;;;;;;;;5078049;28;20028;-74
2022/07/08 14:28:45;;;;;;;7.53;1.45;;;;;;;;;;5084724;28;20035;-73
2022/07/08 14:31:10;;;;;;;5.55;1.40;;;;;;;;;;5079202;28;20031;-73
2022/07/08 14:33:36;;;;;;;3.78;1.25;;;;;;;;;;5075342;28;20032;-73